createdAt,value
2023-06-30T00:03:05.226Z,5.13
2023-06-30T00:09:06.639Z,5.43
2023-06-30T00:15:07.853Z,4.93
2023-06-30T00:21:09.126Z,5.03
2023-06-30T00:27:10.312Z,4.90
2023-06-30T00:33:11.500Z,4.43
2023-06-30T00:39:12.713Z,4.63
2023-06-30T00:45:14.021Z,4.63
2023-06-30T00:51:15.447Z,5.07
2023-06-30T00:57:16.820Z,6.10
2023-06-30T01:03:18.146Z,4.57
2023-06-30T01:09:19.505Z,5.17
2023-06-30T01:15:20.882Z,4.53
2023-06-30T01:21:22.588Z,3.40
2023-06-30T01:27:23.829Z,4.30
2023-06-30T01:33:27.286Z,3.30
2023-06-30T01:39:28.544Z,3.03
2023-06-30T01:45:29.782Z,2.80
2023-06-30T01:51:31.102Z,3.10
2023-06-30T01:57:32.341Z,3.83
2023-06-30T02:03:33.658Z,3.63
2023-06-30T02:09:47.302Z,5.00
2023-06-30T02:15:49.604Z,5.73
2023-06-30T02:21:50.834Z,5.90
2023-06-30T02:27:53.560Z,7.50
2023-06-30T02:33:55.297Z,8.20
2023-06-30T02:39:56.491Z,8.73
2023-06-30T02:45:57.790Z,10.97
2023-06-30T02:51:59.058Z,12.80
2023-06-30T02:58:00.295Z,13.33
2023-06-30T03:04:01.695Z,10.60
2023-06-30T03:10:02.937Z,10.40
2023-06-30T03:16:04.121Z,10.67
2023-06-30T03:22:05.345Z,11.60
2023-06-30T03:28:06.586Z,13.57
2023-06-30T03:34:07.808Z,15.53
2023-06-30T03:40:09.180Z,13.87
2023-06-30T03:46:12.730Z,12.97
2023-06-30T03:52:13.962Z,11.57
2023-06-30T03:58:15.265Z,10.73
2023-06-30T04:04:16.689Z,10.90
2023-06-30T04:10:17.982Z,9.60
2023-06-30T04:16:19.251Z,11.00
2023-06-30T04:22:20.489Z,10.80
2023-06-30T04:28:21.688Z,11.47
2023-06-30T04:34:22.917Z,10.70
2023-06-30T04:40:24.149Z,10.80
2023-06-30T04:46:26.360Z,9.67
2023-06-30T04:52:27.919Z,9.20
2023-06-30T04:58:29.301Z,9.30
2023-06-30T05:04:30.550Z,9.97
2023-06-30T05:10:31.776Z,9.77
2023-06-30T05:16:34.656Z,9.67
2023-06-30T05:22:36.470Z,8.20
2023-06-30T05:28:37.694Z,8.13
2023-06-30T05:34:38.925Z,8.23
2023-06-30T05:40:40.135Z,7.47
2023-06-30T05:46:41.427Z,8.00
2023-06-30T05:52:42.743Z,6.90
2023-06-30T05:58:43.996Z,6.60
2023-06-30T06:04:45.411Z,6.20
2023-06-30T06:10:47.627Z,6.50
2023-06-30T06:16:48.955Z,6.07
2023-06-30T06:22:50.216Z,6.77
2023-06-30T06:28:51.427Z,6.07
2023-06-30T06:34:52.619Z,6.73
2023-06-30T06:40:53.875Z,7.43
2023-06-30T06:46:55.069Z,9.13
2023-06-30T06:52:56.259Z,8.57
2023-06-30T06:58:57.456Z,7.80
2023-06-30T07:04:59.090Z,5.90
2023-06-30T07:11:00.510Z,8.60
2023-06-30T07:17:01.697Z,8.50
2023-06-30T07:23:02.926Z,8.77
2023-06-30T07:29:04.115Z,5.60
2023-06-30T07:35:05.330Z,4.27
2023-06-30T07:41:06.624Z,3.47
2023-06-30T07:47:07.857Z,3.40
2023-06-30T07:53:09.728Z,3.00
2023-06-30T07:59:11.983Z,3.90
2023-06-30T08:05:13.616Z,3.83
2023-06-30T08:11:15.010Z,3.40
2023-06-30T08:17:31.334Z,2.60
2023-06-30T08:23:37.807Z,2.70
2023-06-30T08:29:39.065Z,2.20
2023-06-30T08:35:40.313Z,2.50
2023-06-30T08:41:43.806Z,2.40
2023-06-30T08:47:45.067Z,2.73
2023-06-30T08:53:46.277Z,2.77
2023-06-30T08:59:47.534Z,3.40
2023-06-30T09:05:48.871Z,3.00
2023-06-30T09:11:50.887Z,2.93
2023-06-30T09:17:52.107Z,3.00
2023-06-30T09:23:53.380Z,3.30
2023-06-30T09:29:55.066Z,3.00
2023-06-30T09:35:57.525Z,2.70
2023-06-30T09:41:58.750Z,2.30
2023-06-30T09:48:00.036Z,2.00
2023-06-30T09:54:02.072Z,2.50
2023-06-30T10:00:03.292Z,2.30
2023-06-30T10:06:04.506Z,2.27
2023-06-30T10:12:05.776Z,2.10
2023-06-30T10:18:07.057Z,2.20
2023-06-30T10:24:08.276Z,2.20
2023-06-30T10:30:09.485Z,2.20
2023-06-30T10:36:10.692Z,2.33
2023-06-30T10:42:11.905Z,2.23
2023-06-30T10:48:13.132Z,2.20
2023-06-30T10:54:14.346Z,2.37
2023-06-30T11:00:15.826Z,2.60
2023-06-30T11:06:17.086Z,2.37
2023-06-30T11:12:19.480Z,2.30
2023-06-30T11:18:20.950Z,2.30
2023-06-30T11:24:22.311Z,2.33
2023-06-30T11:30:23.744Z,2.83
2023-06-30T11:36:24.969Z,2.70
2023-06-30T11:42:26.191Z,2.97
2023-06-30T11:48:27.597Z,2.73
2023-06-30T11:54:28.842Z,2.67
2023-06-30T12:00:30.122Z,2.60
2023-06-30T12:06:31.515Z,2.43
2023-06-30T12:12:33.127Z,2.40
2023-06-30T12:18:37.410Z,2.20
2023-06-30T12:24:40.764Z,2.40
2023-06-30T12:30:41.953Z,2.20
2023-06-30T12:36:43.194Z,2.10
2023-06-30T12:42:44.399Z,2.20
2023-06-30T12:48:46.353Z,2.20
2023-06-30T12:54:47.634Z,2.70
2023-06-30T13:00:48.921Z,2.80
2023-06-30T13:06:50.188Z,2.70
2023-06-30T13:12:51.397Z,3.05
2023-06-30T13:18:52.611Z,3.20
2023-06-30T13:24:53.838Z,2.78
2023-06-30T13:30:55.093Z,3.20
2023-06-30T13:36:56.303Z,2.93
2023-06-30T13:42:57.509Z,3.10
2023-06-30T13:48:58.788Z,2.57
2023-06-30T13:55:00.011Z,2.40
2023-06-30T14:01:01.236Z,2.67
2023-06-30T14:07:05.362Z,3.45
2023-06-30T14:13:06.672Z,3.40
2023-06-30T14:19:08.224Z,3.05
2023-06-30T14:25:09.460Z,3.50
2023-06-30T14:31:10.704Z,3.20
2023-06-30T14:37:12.330Z,2.90
2023-06-30T14:43:13.627Z,2.72
2023-06-30T14:49:14.923Z,3.00
2023-06-30T14:55:16.250Z,3.25
2023-06-30T15:01:17.450Z,3.35
2023-06-30T15:07:19.679Z,2.95
2023-06-30T15:13:20.920Z,3.63
2023-06-30T15:19:22.181Z,3.38
2023-06-30T15:25:24.014Z,3.58
2023-06-30T15:31:25.257Z,3.72
2023-06-30T15:37:26.772Z,3.55
2023-06-30T15:43:28.239Z,3.20
2023-06-30T15:49:29.530Z,3.00
2023-06-30T15:55:30.772Z,3.28
2023-06-30T16:01:32.132Z,3.15
2023-06-30T16:07:33.472Z,3.35
2023-06-30T16:13:34.684Z,3.40
2023-06-30T16:19:35.912Z,3.40
2023-06-30T16:25:37.114Z,3.50
2023-06-30T16:31:38.315Z,4.00
2023-06-30T16:37:39.526Z,3.17
2023-06-30T16:43:40.817Z,5.30
2023-06-30T16:49:42.512Z,3.58
2023-06-30T16:55:43.897Z,3.60
2023-06-30T17:01:45.194Z,3.35
2023-06-30T17:07:46.447Z,3.70
2023-06-30T17:13:47.652Z,4.88
2023-06-30T17:19:48.910Z,3.55
2023-06-30T17:25:50.112Z,19.23
2023-06-30T17:31:51.597Z,3.80
2023-06-30T17:37:52.840Z,3.63
2023-06-30T17:43:54.062Z,3.23
2023-06-30T17:49:55.326Z,3.33
2023-06-30T17:55:56.601Z,2.70
2023-06-30T18:01:57.869Z,3.13
2023-06-30T18:07:59.116Z,3.10
2023-06-30T18:14:00.536Z,3.03
2023-06-30T18:20:01.739Z,3.30
2023-06-30T18:26:02.972Z,3.70
2023-06-30T18:32:04.196Z,3.67
2023-06-30T18:38:05.416Z,3.53
2023-06-30T18:44:06.822Z,3.87
2023-06-30T18:50:08.073Z,3.43
2023-06-30T18:56:09.292Z,3.50
2023-06-30T19:02:10.536Z,3.33
2023-06-30T19:08:11.799Z,3.20
2023-06-30T19:14:13.098Z,3.40
2023-06-30T19:20:14.302Z,3.77
2023-06-30T19:26:15.831Z,3.43
2023-06-30T19:32:17.065Z,4.00
2023-06-30T19:38:18.754Z,3.50
2023-06-30T19:44:20.340Z,3.37
2023-06-30T19:50:25.142Z,3.40
2023-06-30T19:56:26.381Z,3.80
2023-06-30T20:02:27.681Z,4.20
2023-06-30T20:08:28.956Z,5.30
2023-06-30T20:14:30.180Z,4.23
2023-06-30T20:20:31.380Z,3.60
2023-06-30T20:26:32.656Z,3.60
2023-06-30T20:32:33.932Z,5.53
2023-06-30T20:38:35.162Z,4.30
2023-06-30T20:44:36.434Z,4.03
2023-06-30T20:50:37.661Z,4.10
2023-06-30T20:56:38.936Z,4.07
2023-06-30T21:02:40.260Z,4.60
2023-06-30T21:08:41.549Z,3.90
2023-06-30T21:14:42.752Z,4.40
2023-06-30T21:20:44.383Z,24.13
2023-06-30T21:26:45.910Z,5.90
2023-06-30T21:32:47.238Z,4.60
2023-06-30T21:38:48.465Z,4.20
2023-06-30T21:44:49.895Z,4.73
2023-06-30T21:50:51.130Z,5.30
2023-06-30T21:56:52.340Z,4.83
2023-06-30T22:02:53.602Z,4.87
2023-06-30T22:09:00.327Z,27.57
2023-06-30T22:15:04.564Z,10.80
2023-06-30T22:21:05.981Z,4.50
2023-06-30T22:27:07.213Z,4.10
2023-06-30T22:33:08.738Z,5.90
2023-06-30T22:39:10.743Z,10.17
2023-06-30T22:45:12.054Z,4.73
2023-06-30T22:51:13.261Z,4.43
2023-06-30T22:57:14.572Z,3.70
2023-06-30T23:03:15.894Z,4.00
2023-06-30T23:09:17.140Z,3.90
2023-06-30T23:15:18.363Z,3.97
2023-06-30T23:21:19.575Z,4.60
2023-06-30T23:27:24.036Z,4.20
2023-06-30T23:33:26.101Z,3.90
2023-06-30T23:39:27.296Z,4.00
2023-06-30T23:45:28.538Z,3.63
2023-06-30T23:51:29.772Z,3.90
2023-06-30T23:57:31.028Z,3.67
